Impacts METAR Board
IDs:

KFLL - Ft Lauderdale-Hollyw, FL, US

Updated at: 2000 UTC 25 Apr 2018
Potential Impact None Slight Moderate High
Time 25/08Z 25/09Z 25/10Z 25/11Z 25/12Z 25/13Z 25/14Z 25/15Z 25/16Z 25/17Z 25/18Z 25/19Z 25/20Z
Temp71 71 70 69 70 73 75 77 78 81 82 79 80
Dewpt65 64 62 62 63 62 62 62 62 62 62 64 66
Altim29.93 29.94 29.95 29.97 29.99 30.00 30.00 30.00 29.98 29.96 29.94 29.91 29.89
VIS10 10 10 10 10 10 10 10 10 10 10 10 10
CIG55 60 65 -- -- -- -- -- -- -- -- -- --
CoverBKNBKNBKNSCTFEWFEWFEWCLRFEWFEWFEWSCTSCT
FltCatVFRVFRVFRVFRVFRVFRVFRVFRVFRVFRVFRVFRVFR
WX--------------------------
WDir33030031028031033030031028000110110
WSpd8 5 8 5 5 7 7 7 5 0 5 10 11
WGst-- -- -- -- -- -- -- -- -- -- -- -- --
Raw hourly METARs
KFLL 250753Z 33008KT 10SM SCT032 BKN055 BKN070 22/18 A2993 RMK AO2 RAE0655 SLP136 OCNL LTGIC DSNT E CB DSNT E MOV E P0000 T02170183
KFLL 250853Z 30005KT 10SM SCT034 BKN060 BKN075 22/18 A2994 RMK AO2 SLP139 60000 T02170178 55002
KFLL 250953Z 31008KT 10SM FEW035 BKN065 21/17 A2995 RMK AO2 SLP141 T02110167
KFLL 251053Z 28005KT 10SM FEW050 SCT075 SCT180 SCT250 21/17 A2997 RMK AO2 SLP147 T02060167
KFLL 251153Z 31005KT 10SM FEW050 FEW075 FEW180 FEW250 21/17 A2999 RMK AO2 SLP154 60000 T02110172 10239 20206 53015
KFLL 251253Z COR 33007KT 10SM FEW050 FEW180 FEW250 23/17 A3000 RMK AO2 SLP157 T02280167
KFLL 251353Z 30007KT 10SM FEW050 FEW250 24/17 A3000 RMK AO2 SLP157 T02390167
KFLL 251453Z 31007KT 10SM CLR 25/17 A3000 RMK AO2 SLP157 T02500167 51003
KFLL 251553Z 28005KT 10SM FEW025 26/17 A2998 RMK AO2 SLP153 T02560167
KFLL 251653Z 00000KT 10SM FEW030 27/17 A2996 RMK AO2 SLP145 T02720167
KFLL 251753Z VRB05KT 10SM FEW050 28/17 A2994 RMK AO2 SLP137 T02780167 10283 20211 58020
KFLL 251853Z 11010KT 10SM SCT055 26/18 A2991 RMK AO2 SLP128 T02610178
KFLL 251953Z 11011KT 10SM SCT055 27/19 A2989 RMK AO2 SLP120 T02670189



Page loaded:  20:21 UTC  |   01:21 PM Pacific  |   02:21 PM Mountain  |   03:21 PM Central  |   04:21 PM Eastern

 

ADVISORIES

FORECASTS

FORECASTS

OBSERVATIONS

USER TOOLS

ABOUT US